Time,TemperatureF,DewpointF,PressureIn,WindDirection,WindDirectionDegrees,WindSpeedMPH,WindSpeedGustMPH,Humidity,HourlyPrecipIn,Conditions,Clouds,dailyrainin,SoftwareType,DateUTC
2013-02-27 00:00:00,33.3,32.3,29.86,SE,134,3.0,8.0,96,0.00,,,0.03,VWS V14.01,2013-02-27 05:00:00,
2013-02-27 00:02:00,33.3,32.3,29.86,SE,129,5.0,8.0,96,0.00,,,0.03,VWS V14.01,2013-02-27 05:02:00,
2013-02-27 00:07:00,33.3,32.3,29.85,SE,146,3.0,6.0,96,0.00,,,0.00,VWS V14.01,2013-02-27 05:07:00,
2013-02-27 00:12:00,33.3,32.3,29.84,SE,138,4.0,9.0,96,0.00,,,0.00,VWS V14.01,2013-02-27 05:12:00,
2013-02-27 00:17:00,33.3,32.3,29.83,ESE,115,9.0,9.0,96,0.00,,,0.00,VWS V14.01,2013-02-27 05:17:00,
2013-02-27 00:22:00,33.3,32.3,29.83,SW,219,2.0,9.0,96,0.00,,,0.00,VWS V14.01,2013-02-27 05:22:00,
2013-02-27 00:28:00,33.3,32.3,29.83,SSE,151,5.0,9.0,96,0.00,,,0.00,VWS V14.01,2013-02-27 05:28:00,
2013-02-27 00:30:00,33.4,32.4,29.80,SW,219,2.0,9.0,96,0.00,,OVC,0.00,VWS V14.01,2013-02-27 05:30:00,
2013-02-27 00:33:00,33.3,32.3,29.83,SSE,149,3.0,8.0,96,0.00,,,0.00,VWS V14.01,2013-02-27 05:33:00,
2013-02-27 00:38:00,33.3,32.3,29.82,SSE,153,6.0,9.0,96,0.00,,,0.00,VWS V14.01,2013-02-27 05:38:00,
2013-02-27 00:43:00,33.4,32.4,29.82,SSE,165,4.0,9.0,96,0.00,,,0.00,VWS V14.01,2013-02-27 05:43:00,
2013-02-27 00:49:00,33.3,32.3,29.82,SSW,203,2.0,10.0,96,0.00,,,0.00,VWS V14.01,2013-02-27 05:49:00,
2013-02-27 00:54:00,33.4,32.4,29.82,West,280,1.0,10.0,96,0.00,,,0.00,VWS V14.01,2013-02-27 05:54:00,
2013-02-27 00:59:00,33.4,32.4,29.82,ESE,110,4.0,10.0,96,0.00,,,0.00,VWS V14.01,2013-02-27 05:59:00,
2013-02-27 01:00:00,33.3,32.3,29.78,South,181,1.0,7.0,96,0.00,,OVC,0.00,VWS V14.01,2013-02-27 06:00:00,
2013-02-27 01:04:00,33.3,32.3,29.81,SE,137,3.0,8.0,96,0.00,,,0.00,VWS V14.01,2013-02-27 06:04:00,
2013-02-27 01:09:00,33.4,32.4,29.81,SE,131,4.0,8.0,96,0.00,,,0.00,VWS V14.01,2013-02-27 06:09:00,
2013-02-27 01:14:00,33.4,32.4,29.82,SE,135,5.0,9.0,96,0.00,,,0.00,VWS V14.01,2013-02-27 06:14:00,
2013-02-27 01:19:00,33.4,32.4,29.81,SSW,198,5.0,9.0,96,0.00,,,0.00,VWS V14.01,2013-02-27 06:19:00,
2013-02-27 01:25:00,33.5,32.5,29.80,SSE,152,6.0,9.0,96,0.00,,,0.00,VWS V14.01,2013-02-27 06:25:00,
2013-02-27 01:30:00,33.4,32.4,29.80,SSW,209,2.0,9.0,96,0.00,,,0.00,VWS V14.01,2013-02-27 06:30:00,
2013-02-27 01:35:00,33.4,32.4,29.80,SSE,160,1.0,7.0,96,0.00,,,0.00,VWS V14.01,2013-02-27 06:35:00,
2013-02-27 01:40:00,33.3,32.3,29.79,SSE,149,5.0,7.0,96,0.00,,,0.00,VWS V14.01,2013-02-27 06:40:00,
2013-02-27 01:45:00,33.3,32.3,29.80,SW,215,2.0,7.0,96,0.00,,,0.00,VWS V14.01,2013-02-27 06:45:00,
2013-02-27 01:50:00,33.3,32.3,29.79,SSE,153,1.0,7.0,96,0.00,,,0.00,VWS V14.01,2013-02-27 06:50:00,
2013-02-27 01:55:00,33.3,32.3,29.79,SSW,203,0.0,7.0,96,0.00,,,0.00,VWS V14.01,2013-02-27 06:55:00,
2013-02-27 02:00:00,33.3,32.3,29.78,ESE,108,2.0,7.0,96,0.00,,,0.00,VWS V14.01,2013-02-27 07:00:00,
2013-02-27 02:06:00,33.3,32.3,29.77,ESE,110,5.0,5.0,96,0.00,,,0.00,VWS V14.01,2013-02-27 07:06:00,
2013-02-27 02:11:00,33.3,32.3,29.76,NNE,18,4.0,8.0,96,0.00,,,0.00,VWS V14.01,2013-02-27 07:11:00,
2013-02-27 02:16:00,33.4,32.4,29.76,SSE,160,4.0,8.0,96,0.00,,,0.00,VWS V14.01,2013-02-27 07:16:00,
2013-02-27 02:21:00,33.4,32.4,29.76,ESE,113,5.0,8.0,96,0.00,,,0.00,VWS V14.01,2013-02-27 07:21:00,
2013-02-27 02:26:00,33.5,32.5,29.76,WNW,295,1.0,8.0,96,0.00,,,0.00,VWS V14.01,2013-02-27 07:26:00,
2013-02-27 02:30:00,33.4,32.4,29.71,SE,138,4.0,7.0,96,0.00,,OVC,0.00,VWS V14.01,2013-02-27 07:30:00,
2013-02-27 02:31:00,33.4,32.4,29.76,SSE,149,1.0,8.0,96,0.00,,,0.00,VWS V14.01,2013-02-27 07:31:00,
2013-02-27 02:36:00,33.4,32.4,29.75,South,187,2.0,7.0,96,0.00,,,0.00,VWS V14.01,2013-02-27 07:36:00,
2013-02-27 02:41:00,33.4,32.4,29.75,South,176,3.0,7.0,96,0.00,,,0.00,VWS V14.01,2013-02-27 07:41:00,
2013-02-27 02:47:00,33.5,32.5,29.75,SW,219,3.0,7.0,96,0.00,,,0.00,VWS V14.01,2013-02-27 07:47:00,
2013-02-27 02:52:00,33.4,32.4,29.74,SSW,212,5.0,7.0,96,0.00,,,0.00,VWS V14.01,2013-02-27 07:52:00,
2013-02-27 02:57:00,33.4,32.4,29.73,SSE,167,3.0,7.0,96,0.00,,,0.00,VWS V14.01,2013-02-27 07:57:00,
2013-02-27 03:00:00,33.7,32.7,29.69,SW,227,2.0,8.0,96,0.00,,OVC,0.00,VWS V14.01,2013-02-27 08:00:00,
2013-02-27 03:02:00,33.5,32.5,29.73,ESE,105,1.0,7.0,96,0.00,,,0.00,VWS V14.01,2013-02-27 08:02:00,
2013-02-27 03:07:00,33.5,32.5,29.74,SSE,149,2.0,4.0,96,0.00,,,0.00,VWS V14.01,2013-02-27 08:07:00,
2013-02-27 03:12:00,33.5,32.5,29.73,East,101,2.0,4.0,96,0.00,,,0.00,VWS V14.01,2013-02-27 08:12:00,
2013-02-27 03:17:00,33.4,32.4,29.72,SE,131,4.0,7.0,96,0.00,,,0.00,VWS V14.01,2013-02-27 08:17:00,
2013-02-27 03:23:00,33.4,32.4,29.72,SW,219,3.0,7.0,96,0.00,,,0.00,VWS V14.01,2013-02-27 08:23:00,
2013-02-27 03:28:00,33.4,32.4,29.71,SE,127,2.0,7.0,96,0.00,,,0.00,VWS V14.01,2013-02-27 08:28:00,
2013-02-27 03:30:00,33.9,32.6,29.68,WSW,248,3.0,8.0,95,0.00,,OVC,0.00,VWS V14.01,2013-02-27 08:30:00,
2013-02-27 03:33:00,33.4,32.4,29.71,SSE,165,2.0,5.0,96,0.00,,,0.00,VWS V14.01,2013-02-27 08:33:00,
2013-02-27 03:38:00,33.4,32.4,29.70,SE,135,4.0,7.0,96,0.00,,,0.00,VWS V14.01,2013-02-27 08:38:00,
2013-02-27 03:43:00,33.5,32.5,29.70,SSE,152,4.0,8.0,96,0.00,,,0.00,VWS V14.01,2013-02-27 08:43:00,
2013-02-27 03:48:00,33.5,32.5,29.70,SSE,155,3.0,8.0,96,0.00,,,0.00,VWS V14.01,2013-02-27 08:48:00,
2013-02-27 03:53:00,33.6,32.6,29.69,SSE,149,2.0,8.0,96,0.00,,,0.00,VWS V14.01,2013-02-27 08:53:00,
2013-02-27 03:59:00,33.6,32.6,29.69,SW,226,2.0,8.0,96,0.00,,,0.00,VWS V14.01,2013-02-27 08:59:00,
2013-02-27 04:00:00,34.0,32.5,29.67,SSE,148,1.0,8.0,94,0.00,,OVC,0.00,VWS V14.01,2013-02-27 09:00:00,
2013-02-27 04:04:00,33.7,32.7,29.69,ENE,77,2.0,6.0,96,0.00,,-RA,0.00,VWS V14.01,2013-02-27 09:04:00,
2013-02-27 04:09:00,33.7,32.4,29.69,SSW,199,1.0,7.0,95,0.00,,-RA,0.00,VWS V14.01,2013-02-27 09:09:00,
2013-02-27 04:14:00,33.7,32.4,29.68,SSW,195,2.0,8.0,95,0.00,,-RA,0.00,VWS V14.01,2013-02-27 09:14:00,
2013-02-27 04:19:00,33.8,32.5,29.68,SE,134,2.0,8.0,95,0.00,,-RA,0.00,VWS V14.01,2013-02-27 09:19:00,
2013-02-27 04:24:00,33.8,32.5,29.68,ESE,116,2.0,8.0,95,0.00,,-RA,0.00,VWS V14.01,2013-02-27 09:24:00,
2013-02-27 04:29:00,33.8,32.5,29.68,SE,132,3.0,8.0,95,0.00,,-RA,0.00,VWS V14.01,2013-02-27 09:29:00,
2013-02-27 04:30:00,34.2,32.7,29.66,SE,143,2.0,9.0,94,0.00,,OVC,0.00,VWS V14.01,2013-02-27 09:30:00,
2013-02-27 04:34:00,33.9,32.6,29.68,ESE,118,3.0,7.0,95,0.00,,,0.00,VWS V14.01,2013-02-27 09:34:00,
2013-02-27 04:39:00,33.9,32.6,29.68,WSW,238,2.0,7.0,95,0.00,,,0.00,VWS V14.01,2013-02-27 09:39:00,
2013-02-27 04:45:00,33.9,32.6,29.68,South,172,2.0,8.0,95,0.00,,,0.00,VWS V14.01,2013-02-27 09:45:00,
2013-02-27 04:50:00,33.9,32.6,29.68,WSW,238,4.0,8.0,95,0.00,,,0.00,VWS V14.01,2013-02-27 09:50:00,
2013-02-27 04:55:00,34.0,32.7,29.67,SE,134,3.0,8.0,95,0.00,,,0.00,VWS V14.01,2013-02-27 09:55:00,
2013-02-27 05:00:00,34.0,32.5,29.67,SE,125,1.0,8.0,94,0.00,,,0.00,VWS V14.01,2013-02-27 10:00:00,
2013-02-27 05:05:00,34.0,32.5,29.67,SE,138,3.0,6.0,94,0.00,,OVC013,0.00,VWS V14.01,2013-02-27 10:05:00,
2013-02-27 05:10:00,34.0,32.5,29.67,ESE,102,3.0,7.0,94,0.00,,OVC013,0.00,VWS V14.01,2013-02-27 10:10:00,
2013-02-27 05:16:00,34.0,32.5,29.66,SE,125,5.0,9.0,94,0.00,,OVC013,0.00,VWS V14.01,2013-02-27 10:16:00,
2013-02-27 05:21:00,34.0,32.5,29.66,ESE,105,7.0,9.0,94,0.00,,OVC013,0.00,VWS V14.01,2013-02-27 10:21:00,
2013-02-27 05:26:00,34.1,32.6,29.66,SW,222,2.0,9.0,94,0.00,,OVC013,0.00,VWS V14.01,2013-02-27 10:26:00,
2013-02-27 05:30:00,33.9,32.6,29.65,SE,141,1.0,5.0,95,0.01,,OVC,0.01,VWS V14.01,2013-02-27 10:30:00,
2013-02-27 05:31:00,34.2,32.7,29.66,SSE,160,6.0,9.0,94,0.00,,OVC013,0.00,VWS V14.01,2013-02-27 10:31:00,
2013-02-27 05:36:00,34.2,32.7,29.66,SE,134,5.0,7.0,94,0.00,,-RA,0.00,VWS V14.01,2013-02-27 10:36:00,
2013-02-27 05:41:00,34.2,32.7,29.66,SE,146,2.0,7.0,94,0.00,,-RA,0.00,VWS V14.01,2013-02-27 10:41:00,
2013-02-27 05:46:00,34.2,32.7,29.66,SE,127,1.0,7.0,94,0.00,,-RA,0.00,VWS V14.01,2013-02-27 10:46:00,
2013-02-27 05:51:00,34.1,32.6,29.66,SE,141,2.0,7.0,94,0.00,,-RA,0.00,VWS V14.01,2013-02-27 10:51:00,
2013-02-27 05:57:00,34.0,32.5,29.66,SSE,167,1.0,7.0,94,0.00,,-RA,0.00,VWS V14.01,2013-02-27 10:57:00,
2013-02-27 06:00:00,33.9,32.6,29.64,SE,134,3.0,6.0,95,0.01,,OVC,0.01,VWS V14.01,2013-02-27 11:00:00,
2013-02-27 06:02:00,34.0,32.5,29.65,ESE,120,1.0,7.0,94,0.00,,-RA,0.00,VWS V14.01,2013-02-27 11:02:00,
2013-02-27 06:07:00,34.0,32.5,29.65,ESE,119,1.0,4.0,94,0.00,,-RA,0.00,VWS V14.01,2013-02-27 11:07:00,
2013-02-27 06:12:00,33.9,32.4,29.65,SE,127,0.0,4.0,94,0.00,,-RA,0.00,VWS V14.01,2013-02-27 11:12:00,
2013-02-27 06:17:00,33.9,32.4,29.65,SE,129,2.0,4.0,94,0.00,,-RA,0.00,VWS V14.01,2013-02-27 11:17:00,
2013-02-27 06:22:00,33.9,32.6,29.65,SW,214,0.0,4.0,95,0.00,,-RA,0.00,VWS V14.01,2013-02-27 11:22:00,
2013-02-27 06:27:00,33.9,32.6,29.65,SE,138,1.0,4.0,95,0.00,,-RA,0.00,VWS V14.01,2013-02-27 11:27:00,
2013-02-27 06:30:00,33.9,32.6,29.63,SE,128,2.0,6.0,95,0.02,,OVC,0.02,VWS V14.01,2013-02-27 11:30:00,
2013-02-27 06:32:00,33.9,32.6,29.65,ESE,110,2.0,5.0,95,0.01,,OVC013,0.01,VWS V14.01,2013-02-27 11:32:00,
2013-02-27 06:37:00,33.8,32.5,29.64,SE,134,2.0,4.0,95,0.01,,OVC013,0.01,VWS V14.01,2013-02-27 11:37:00,
2013-02-27 06:42:00,33.8,32.5,29.64,SE,132,2.0,4.0,95,0.01,,OVC013,0.01,VWS V14.01,2013-02-27 11:42:00,
2013-02-27 06:48:00,33.9,32.6,29.64,SSE,158,0.0,4.0,95,0.01,,OVC013,0.01,VWS V14.01,2013-02-27 11:48:00,
2013-02-27 06:53:00,33.9,32.6,29.64,SSE,151,2.0,4.0,95,0.01,,OVC013,0.01,VWS V14.01,2013-02-27 11:53:00,
2013-02-27 06:58:00,33.9,32.6,29.64,SSE,155,3.0,6.0,95,0.01,,OVC013,0.01,VWS V14.01,2013-02-27 11:58:00,
2013-02-27 07:00:00,34.1,32.8,29.63,SE,144,1.0,5.0,95,0.01,,OVC,0.02,VWS V14.01,2013-02-27 12:00:00,
2013-02-27 07:03:00,33.9,32.6,29.64,SE,137,2.0,3.0,95,0.01,,OVC013,0.01,VWS V14.01,2013-02-27 12:03:00,
2013-02-27 07:08:00,33.9,32.6,29.64,SE,138,2.0,3.0,95,0.01,,OVC013,0.01,VWS V14.01,2013-02-27 12:08:00,
2013-02-27 07:13:00,33.9,32.6,29.63,SSE,154,4.0,6.0,95,0.01,,OVC013,0.01,VWS V14.01,2013-02-27 12:13:00,
2013-02-27 07:18:00,33.9,32.6,29.63,SE,128,1.0,6.0,95,0.01,,OVC013,0.01,VWS V14.01,2013-02-27 12:18:00,
2013-02-27 07:23:00,33.9,32.6,29.63,SE,124,3.0,6.0,95,0.01,,OVC013,0.01,VWS V14.01,2013-02-27 12:23:00,
2013-02-27 07:29:00,33.9,32.6,29.63,SSE,156,2.0,6.0,95,0.01,,OVC013,0.01,VWS V14.01,2013-02-27 12:29:00,
2013-02-27 07:34:00,33.9,32.6,29.63,ESE,113,3.0,5.0,95,0.01,,-RA,0.02,VWS V14.01,2013-02-27 12:34:00,
2013-02-27 07:39:00,34.0,32.7,29.63,SE,141,3.0,5.0,95,0.01,,-RA,0.02,VWS V14.01,2013-02-27 12:39:00,
2013-02-27 07:44:00,34.0,32.7,29.63,SE,134,0.0,5.0,95,0.01,,-RA,0.02,VWS V14.01,2013-02-27 12:44:00,
2013-02-27 07:49:00,34.0,32.7,29.63,SW,214,1.0,5.0,95,0.01,,-RA,0.02,VWS V14.01,2013-02-27 12:49:00,
2013-02-27 07:54:00,34.1,32.8,29.63,SE,146,2.0,5.0,95,0.01,,-RA,0.02,VWS V14.01,2013-02-27 12:54:00,
2013-02-27 07:59:00,34.1,32.8,29.63,ESE,106,2.0,5.0,95,0.01,,-RA,0.02,VWS V14.01,2013-02-27 12:59:00,
2013-02-27 08:04:00,34.1,32.8,29.63,SSE,148,1.0,2.0,95,0.01,,-RA,0.02,VWS V14.01,2013-02-27 13:04:00,
2013-02-27 08:10:00,34.1,32.8,29.63,ENE,73,0.0,3.0,95,0.01,,-RA,0.02,VWS V14.01,2013-02-27 13:10:00,
2013-02-27 08:15:00,34.1,32.8,29.63,SE,127,2.0,4.0,95,0.01,,-RA,0.02,VWS V14.01,2013-02-27 13:15:00,
2013-02-27 08:20:00,34.1,32.8,29.63,SW,224,1.0,4.0,95,0.01,,-RA,0.02,VWS V14.01,2013-02-27 13:20:00,
2013-02-27 11:00:00,35.0,34.0,29.60,SSE,150,0.0,3.0,96,0.01,,OVC,0.05,VWS V14.01,2013-02-27 16:00:00,
2013-02-27 11:30:00,34.1,32.8,29.62,North,9,1.0,1.0,95,0.03,,-RA,0.04,VWS V14.01,2013-02-27 16:30:00,
2013-02-27 11:32:00,34.1,33.1,29.62,NE,40,0.0,0.0,96,0.00,,,0.04,VWS V14.01,2013-02-27 16:32:00,
2013-02-27 11:37:00,34.1,33.1,29.62,NNE,12,0.0,1.0,96,0.00,,,0.04,VWS V14.01,2013-02-27 16:37:00,
2013-02-27 11:42:00,34.3,33.3,29.62,NNE,12,0.0,1.0,96,0.00,,,0.04,VWS V14.01,2013-02-27 16:42:00,
2013-02-27 11:47:00,34.6,33.6,29.61,NNE,23,0.0,1.0,96,0.00,,,0.04,VWS V14.01,2013-02-27 16:47:00,
2013-02-27 11:52:00,34.7,33.7,29.61,North,1,2.0,3.0,96,0.00,,,0.04,VWS V14.01,2013-02-27 16:52:00,
2013-02-27 11:57:00,34.7,33.7,29.61,NNE,23,0.0,3.0,96,0.01,,,0.05,VWS V14.01,2013-02-27 16:57:00,
2013-02-27 12:00:00,35.0,34.0,29.60,SSE,150,0.0,3.0,96,0.01,,-RA,0.05,VWS V14.01,2013-02-27 17:00:00,
2013-02-27 12:02:00,35.0,34.0,29.60,SSE,150,0.0,3.0,96,0.01,,,0.05,VWS V14.01,2013-02-27 17:02:00,
2013-02-27 12:08:00,35.3,34.3,29.60,ENE,68,0.0,2.0,96,0.01,,,0.05,VWS V14.01,2013-02-27 17:08:00,
2013-02-27 12:13:00,35.5,34.5,29.60,SE,138,0.0,2.0,96,0.01,,,0.05,VWS V14.01,2013-02-27 17:13:00,
2013-02-27 12:18:00,35.5,34.2,29.60,SE,146,1.0,2.0,95,0.01,,,0.05,VWS V14.01,2013-02-27 17:18:00,
2013-02-27 12:23:00,35.7,34.4,29.60,SSE,163,0.0,2.0,95,0.01,,,0.05,VWS V14.01,2013-02-27 17:23:00,
2013-02-27 12:28:00,35.8,34.5,29.60,SSE,161,0.0,2.0,95,0.02,,,0.06,VWS V14.01,2013-02-27 17:28:00,
2013-02-27 12:30:00,35.9,34.6,29.59,ENE,77,1.0,2.0,95,0.02,,-RA,0.06,VWS V14.01,2013-02-27 17:30:00,
2013-02-27 12:33:00,35.8,34.5,29.59,East,90,0.0,2.0,95,0.02,,-RA,0.06,VWS V14.01,2013-02-27 17:33:00,
2013-02-27 12:38:00,35.9,34.6,29.59,SE,129,0.0,2.0,95,0.02,,-RA,0.06,VWS V14.01,2013-02-27 17:38:00,
2013-02-27 12:43:00,36.1,34.8,29.59,East,101,0.0,2.0,95,0.02,,-RA,0.06,VWS V14.01,2013-02-27 17:43:00,
2013-02-27 12:48:00,36.3,35.0,29.59,ESE,102,0.0,2.0,95,0.03,,-RA,0.07,VWS V14.01,2013-02-27 17:48:00,
2013-02-27 12:54:00,36.4,35.1,29.59,SSE,155,0.0,2.0,95,0.03,,-RA,0.07,VWS V14.01,2013-02-27 17:54:00,
2013-02-27 12:59:00,36.4,34.8,29.59,SSE,155,0.0,2.0,94,0.03,,-RA,0.07,VWS V14.01,2013-02-27 17:59:00,
2013-02-27 13:00:00,36.5,34.9,29.58,SE,136,0.0,2.0,94,0.04,,-RA,0.08,VWS V14.01,2013-02-27 18:00:00,
2013-02-27 13:04:00,36.6,35.0,29.58,SE,137,0.0,0.0,94,0.03,,-RA,0.08,VWS V14.01,2013-02-27 18:04:00,
2013-02-27 13:09:00,37.0,35.7,29.58,ESE,121,0.0,0.0,95,0.03,,-RA,0.08,VWS V14.01,2013-02-27 18:09:00,
2013-02-27 13:14:00,36.9,35.1,29.59,SE,129,0.0,0.0,93,0.04,,-RA,0.09,VWS V14.01,2013-02-27 18:14:00,
2013-02-27 13:19:00,37.1,35.3,29.59,SE,129,0.0,0.0,93,0.04,,-RA,0.09,VWS V14.01,2013-02-27 18:19:00,
2013-02-27 13:25:00,37.5,35.9,29.58,SE,125,0.0,0.0,94,0.04,,-RA,0.09,VWS V14.01,2013-02-27 18:25:00,
2013-02-27 13:30:00,37.8,36.0,29.58,SE,124,0.0,0.0,93,0.05,,-RA,0.10,VWS V14.01,2013-02-27 18:30:00,
2013-02-27 13:35:00,37.9,35.8,29.58,ESE,122,0.0,0.0,92,0.05,,,0.11,VWS V14.01,2013-02-27 18:35:00,
2013-02-27 13:40:00,38.1,36.0,29.58,SE,127,0.0,0.0,92,0.05,,,0.11,VWS V14.01,2013-02-27 18:40:00,
2013-02-27 13:45:00,38.3,36.2,29.58,SE,134,0.0,0.0,92,0.06,,,0.12,VWS V14.01,2013-02-27 18:45:00,
2013-02-27 13:50:00,38.4,36.0,29.57,SE,134,0.0,0.0,91,0.07,,,0.13,VWS V14.01,2013-02-27 18:50:00,
2013-02-27 13:55:00,38.1,35.7,29.57,ESE,121,0.0,0.0,91,0.08,,,0.14,VWS V14.01,2013-02-27 18:55:00,
2013-02-27 14:00:00,38.0,35.6,29.57,ESE,120,0.0,0.0,91,0.09,,-RA,0.15,VWS V14.01,2013-02-27 19:00:00,
2013-02-27 14:01:00,38.0,35.6,29.57,ESE,121,0.0,0.0,91,0.09,,,0.15,VWS V14.01,2013-02-27 19:01:00,
2013-02-27 14:06:00,37.9,35.5,29.57,ESE,120,0.0,0.0,91,0.07,,,0.15,VWS V14.01,2013-02-27 19:06:00,
2013-02-27 14:11:00,37.9,35.5,29.57,ESE,120,0.0,0.0,91,0.08,,,0.16,VWS V14.01,2013-02-27 19:11:00,
2013-02-27 14:16:00,38.1,35.7,29.57,ESE,120,0.0,0.0,91,0.09,,,0.17,VWS V14.01,2013-02-27 19:16:00,
2013-02-27 14:21:00,37.9,35.2,29.57,ESE,118,0.0,0.0,90,0.10,,,0.18,VWS V14.01,2013-02-27 19:21:00,
2013-02-27 14:26:00,37.5,34.8,29.57,ESE,119,0.0,0.0,90,0.11,,,0.19,VWS V14.01,2013-02-27 19:26:00,
2013-02-27 14:30:00,37.5,35.1,29.57,ESE,118,0.0,0.0,91,0.12,,-RA,0.20,VWS V14.01,2013-02-27 19:30:00,
2013-02-27 14:31:00,37.4,35.0,29.57,ESE,119,0.0,0.0,91,0.12,,,0.20,VWS V14.01,2013-02-27 19:31:00,
2013-02-27 14:36:00,37.7,35.3,29.57,SE,124,0.0,0.0,91,0.11,,,0.21,VWS V14.01,2013-02-27 19:36:00,
2013-02-27 14:42:00,37.6,34.9,29.57,SE,124,0.0,0.0,90,0.12,,,0.22,VWS V14.01,2013-02-27 19:42:00,
2013-02-27 14:47:00,37.6,35.2,29.57,SE,128,0.0,0.0,91,0.13,,,0.23,VWS V14.01,2013-02-27 19:47:00,
2013-02-27 14:52:00,37.8,35.4,29.57,SW,226,0.0,0.0,91,0.14,,,0.24,VWS V14.01,2013-02-27 19:52:00,
2013-02-27 14:57:00,37.6,35.2,29.57,SW,225,0.0,0.0,91,0.15,,,0.25,VWS V14.01,2013-02-27 19:57:00,
2013-02-27 15:00:00,37.5,35.1,29.57,SW,226,0.0,0.0,91,0.16,,-RA,0.26,VWS V14.01,2013-02-27 20:00:00,
2013-02-27 15:02:00,37.4,35.0,29.57,SW,226,0.0,0.0,91,0.16,,,0.26,VWS V14.01,2013-02-27 20:02:00,
2013-02-27 15:07:00,37.6,35.2,29.57,SW,226,0.0,0.0,91,0.12,,,0.27,VWS V14.01,2013-02-27 20:07:00,
2013-02-27 15:12:00,37.3,34.9,29.57,North,8,0.0,0.0,91,0.13,,,0.28,VWS V14.01,2013-02-27 20:12:00,
2013-02-27 15:18:00,37.0,34.6,29.57,North,6,0.0,0.0,91,0.14,,,0.29,VWS V14.01,2013-02-27 20:18:00,
2013-02-27 15:23:00,36.9,34.8,29.57,North,6,0.0,0.0,92,0.15,,,0.30,VWS V14.01,2013-02-27 20:23:00,
2013-02-27 15:28:00,36.8,34.7,29.57,North,6,0.0,0.0,92,0.16,,,0.31,VWS V14.01,2013-02-27 20:28:00,
2013-02-27 15:30:00,36.7,34.6,29.57,North,6,0.0,0.0,92,0.16,,-RA,0.31,VWS V14.01,2013-02-27 20:30:00,
2013-02-27 15:33:00,36.7,34.6,29.57,North,6,0.0,0.0,92,0.12,,,0.32,VWS V14.01,2013-02-27 20:33:00,
2013-02-27 15:38:00,36.6,34.5,29.58,NW,314,1.0,1.0,92,0.12,,,0.32,VWS V14.01,2013-02-27 20:38:00,
2013-02-27 15:43:00,36.4,34.6,29.57,NNW,347,0.0,1.0,93,0.13,,,0.33,VWS V14.01,2013-02-27 20:43:00,
2013-02-27 15:48:00,36.4,34.6,29.58,NNW,345,0.0,1.0,93,0.14,,,0.34,VWS V14.01,2013-02-27 20:48:00,
2013-02-27 15:54:00,36.4,34.6,29.58,NNW,345,0.0,1.0,93,0.15,,,0.35,VWS V14.01,2013-02-27 20:54:00,
2013-02-27 15:59:00,36.3,34.5,29.58,NNW,345,0.0,1.0,93,0.15,,,0.35,VWS V14.01,2013-02-27 20:59:00,
2013-02-27 16:00:00,36.3,34.5,29.58,NNW,345,0.0,1.0,93,0.16,,-RA,0.36,VWS V14.01,2013-02-27 21:00:00,
2013-02-27 16:04:00,36.2,34.4,29.58,NNW,345,0.0,0.0,93,0.10,,,0.36,VWS V14.01,2013-02-27 21:04:00,
2013-02-27 16:09:00,36.2,34.4,29.58,NNW,345,0.0,1.0,93,0.11,,,0.37,VWS V14.01,2013-02-27 21:09:00,
2013-02-27 16:14:00,36.0,34.2,29.58,NNW,345,0.0,1.0,93,0.11,,,0.37,VWS V14.01,2013-02-27 21:14:00,
2013-02-27 16:19:00,35.9,34.1,29.58,NNW,345,0.0,1.0,93,0.12,,,0.38,VWS V14.01,2013-02-27 21:19:00,
2013-02-27 16:25:00,35.9,34.3,29.58,NNW,345,0.0,1.0,94,0.12,,,0.38,VWS V14.01,2013-02-27 21:25:00,
2013-02-27 16:30:00,35.8,34.2,29.58,NNW,345,0.0,1.0,94,0.13,,,0.39,VWS V14.01,2013-02-27 21:30:00,
2013-02-27 16:35:00,35.7,34.2,29.58,NNW,345,0.0,0.0,94,0.08,,-RA,0.39,VWS V14.01,2013-02-27 21:35:00,
2013-02-27 16:40:00,35.7,34.2,29.58,NNW,345,0.0,0.0,94,0.09,,-RA,0.40,VWS V14.01,2013-02-27 21:40:00,
2013-02-27 16:45:00,35.5,34.0,29.58,NNW,345,0.0,1.0,94,0.10,,-RA,0.41,VWS V14.01,2013-02-27 21:45:00,
2013-02-27 16:50:00,35.4,33.8,29.58,WNW,285,0.0,1.0,94,0.10,,-RA,0.41,VWS V14.01,2013-02-27 21:50:00,
2013-02-27 16:55:00,35.3,33.8,29.58,WNW,284,0.0,1.0,94,0.11,,-RA,0.42,VWS V14.01,2013-02-27 21:55:00,
2013-02-27 17:00:00,35.3,34.0,29.57,WNW,284,0.0,1.0,95,0.11,,-RA,0.42,VWS V14.01,2013-02-27 22:00:00,
2013-02-27 17:01:00,35.3,34.0,29.57,WNW,284,0.0,1.0,95,0.11,,-RA,0.42,VWS V14.01,2013-02-27 22:01:00,
2013-02-27 17:06:00,35.3,34.0,29.57,WNW,284,0.0,1.0,95,0.07,,-RA,0.43,VWS V14.01,2013-02-27 22:06:00,
2013-02-27 17:11:00,35.2,33.9,29.57,WNW,283,0.0,1.0,95,0.07,,-RA,0.43,VWS V14.01,2013-02-27 22:11:00,
2013-02-27 17:16:00,35.3,34.0,29.58,WNW,283,0.0,1.0,95,0.08,,-RA,0.44,VWS V14.01,2013-02-27 22:16:00,
2013-02-27 17:21:00,35.3,34.0,29.58,WNW,283,0.0,1.0,95,0.08,,-RA,0.44,VWS V14.01,2013-02-27 22:21:00,
2013-02-27 17:26:00,35.2,33.9,29.58,WNW,284,0.0,1.0,95,0.09,,-RA,0.45,VWS V14.01,2013-02-27 22:26:00,
2013-02-27 17:30:00,35.1,33.8,29.58,West,279,0.0,1.0,95,0.09,,-RA,0.45,VWS V14.01,2013-02-27 22:30:00,
2013-02-27 17:31:00,35.1,33.8,29.58,WNW,284,0.0,1.0,95,0.09,,-RA,0.45,VWS V14.01,2013-02-27 22:31:00,
2013-02-27 17:36:00,35.0,33.7,29.58,West,276,0.0,0.0,95,0.06,,,0.45,VWS V14.01,2013-02-27 22:36:00,
2013-02-27 17:42:00,34.9,33.9,29.58,West,274,0.0,0.0,96,0.07,,,0.46,VWS V14.01,2013-02-27 22:42:00,
2013-02-27 17:47:00,35.0,34.0,29.58,West,274,0.0,0.0,96,0.07,,,0.46,VWS V14.01,2013-02-27 22:47:00,
2013-02-27 17:52:00,34.9,33.9,29.58,West,274,0.0,0.0,96,0.07,,,0.46,VWS V14.01,2013-02-27 22:52:00,
2013-02-27 17:57:00,34.8,33.8,29.58,West,274,0.0,0.0,96,0.08,,,0.47,VWS V14.01,2013-02-27 22:57:00,
2013-02-27 18:00:00,34.8,33.8,29.58,West,274,0.0,0.0,96,0.08,,-RA,0.47,VWS V14.01,2013-02-27 23:00:00,
2013-02-27 18:02:00,34.8,33.8,29.58,West,274,0.0,0.0,96,0.08,,,0.47,VWS V14.01,2013-02-27 23:02:00,
2013-02-27 18:07:00,34.7,33.7,29.59,West,274,0.0,0.0,96,0.05,,,0.47,VWS V14.01,2013-02-27 23:07:00,
2013-02-27 18:13:00,34.7,33.7,29.59,West,274,0.0,0.0,96,0.06,,,0.48,VWS V14.01,2013-02-27 23:13:00,
2013-02-27 18:18:00,34.7,33.7,29.59,West,274,0.0,0.0,96,0.06,,,0.48,VWS V14.01,2013-02-27 23:18:00,
2013-02-27 18:23:00,34.7,33.7,29.59,West,274,0.0,0.0,96,0.06,,,0.48,VWS V14.01,2013-02-27 23:23:00,
2013-02-27 18:28:00,34.7,33.7,29.59,West,260,0.0,0.0,96,0.07,,,0.49,VWS V14.01,2013-02-27 23:28:00,
2013-02-27 18:30:00,34.6,33.6,29.59,WSW,249,0.0,0.0,96,0.07,,-RA,0.49,VWS V14.01,2013-02-27 23:30:00,
2013-02-27 18:33:00,34.6,33.6,29.59,WSW,249,0.0,0.0,96,0.04,,OVC042,0.49,VWS V14.01,2013-02-27 23:33:00,
2013-02-27 18:38:00,34.5,33.5,29.59,WSW,257,0.0,0.0,96,0.04,,OVC042,0.49,VWS V14.01,2013-02-27 23:38:00,
2013-02-27 18:44:00,34.5,33.5,29.59,WSW,257,0.0,0.0,96,0.05,,OVC042,0.50,VWS V14.01,2013-02-27 23:44:00,
2013-02-27 18:49:00,34.5,33.5,29.59,WSW,257,0.0,0.0,96,0.05,,OVC042,0.50,VWS V14.01,2013-02-27 23:49:00,
2013-02-27 18:54:00,34.5,33.5,29.59,West,259,0.0,0.0,96,0.05,,OVC042,0.50,VWS V14.01,2013-02-27 23:54:00,
2013-02-27 18:59:00,34.5,33.5,29.59,West,264,0.0,0.0,96,0.06,,OVC042,0.51,VWS V14.01,2013-02-27 23:59:00,
2013-02-27 19:00:00,34.5,33.5,29.59,West,264,0.0,0.0,96,0.06,,-RA,0.51,VWS V14.01,2013-02-28 00:00:00,
2013-02-27 19:04:00,34.5,33.7,29.59,West,264,0.0,0.0,97,0.04,,-RA,0.51,VWS V14.01,2013-02-28 00:04:00,
2013-02-27 19:09:00,34.5,33.7,29.59,West,260,0.0,0.0,97,0.04,,-RA,0.51,VWS V14.01,2013-02-28 00:09:00,
2013-02-27 19:14:00,34.6,33.8,29.59,West,260,0.0,0.0,97,0.04,,-RA,0.51,VWS V14.01,2013-02-28 00:14:00,
2013-02-27 19:19:00,34.6,33.8,29.59,West,260,0.0,0.0,97,0.05,,-RA,0.52,VWS V14.01,2013-02-28 00:19:00,
2013-02-27 19:25:00,34.6,33.8,29.58,West,260,0.0,0.0,97,0.05,,-RA,0.52,VWS V14.01,2013-02-28 00:25:00,
2013-02-27 19:30:00,34.5,33.7,29.58,West,259,0.0,0.0,97,0.05,,-RA,0.52,VWS V14.01,2013-02-28 00:30:00,
2013-02-27 19:35:00,34.5,33.7,29.58,West,260,0.0,0.0,97,0.03,,-RA,0.52,VWS V14.01,2013-02-28 00:35:00,
2013-02-27 19:40:00,34.5,33.7,29.58,West,260,0.0,0.0,97,0.04,,-RA,0.53,VWS V14.01,2013-02-28 00:40:00,
2013-02-27 19:45:00,34.5,33.7,29.58,West,260,0.0,0.0,97,0.04,,-RA,0.53,VWS V14.01,2013-02-28 00:45:00,
2013-02-27 19:50:00,34.6,33.8,29.58,West,260,0.0,0.0,97,0.04,,-RA,0.53,VWS V14.01,2013-02-28 00:50:00,
2013-02-27 19:55:00,34.6,33.8,29.58,West,260,0.0,0.0,97,0.04,,-RA,0.53,VWS V14.01,2013-02-28 00:55:00,
2013-02-27 20:00:00,34.5,33.7,29.58,West,259,0.0,0.0,97,0.05,,-RA,0.54,VWS V14.01,2013-02-28 01:00:00,
2013-02-27 20:06:00,34.4,33.6,29.58,West,260,0.0,0.0,97,0.03,,-RA,0.54,VWS V14.01,2013-02-28 01:06:00,
2013-02-27 20:11:00,34.3,33.5,29.58,West,260,0.0,0.0,97,0.03,,-RA,0.54,VWS V14.01,2013-02-28 01:11:00,
2013-02-27 20:16:00,34.2,33.4,29.58,West,260,0.0,0.0,97,0.03,,-RA,0.54,VWS V14.01,2013-02-28 01:16:00,
2013-02-27 20:21:00,34.2,33.4,29.58,West,260,0.0,0.0,97,0.03,,-RA,0.54,VWS V14.01,2013-02-28 01:21:00,
2013-02-27 20:26:00,34.2,33.4,29.58,West,260,0.0,0.0,97,0.03,,-RA,0.54,VWS V14.01,2013-02-28 01:26:00,
2013-02-27 20:30:00,34.4,33.6,29.58,West,260,0.0,0.0,97,0.04,,-RA,0.55,VWS V14.01,2013-02-28 01:30:00,
2013-02-27 20:31:00,34.3,33.5,29.58,West,260,0.0,0.0,97,0.04,,-RA,0.55,VWS V14.01,2013-02-28 01:31:00,
2013-02-27 20:36:00,34.6,33.8,29.58,West,260,0.0,0.0,97,0.03,,-RA,0.55,VWS V14.01,2013-02-28 01:36:00,
2013-02-27 20:41:00,34.8,34.0,29.58,West,260,0.0,0.0,97,0.03,,-RA,0.55,VWS V14.01,2013-02-28 01:41:00,
2013-02-27 20:47:00,34.8,34.0,29.58,West,260,0.0,0.0,97,0.03,,-RA,0.55,VWS V14.01,2013-02-28 01:47:00,
2013-02-27 20:52:00,34.7,33.9,29.58,WSW,255,0.0,0.0,97,0.03,,-RA,0.55,VWS V14.01,2013-02-28 01:52:00,
2013-02-27 20:57:00,34.7,33.9,29.58,West,271,0.0,0.0,97,0.04,,-RA,0.56,VWS V14.01,2013-02-28 01:57:00,
2013-02-27 21:00:00,35.0,34.2,29.59,West,264,1.0,2.0,97,0.04,,-RA,0.56,VWS V14.01,2013-02-28 02:00:00,
2013-02-27 21:02:00,35.0,34.2,29.59,West,265,1.0,2.0,97,0.04,,-RA,0.56,VWS V14.01,2013-02-28 02:02:00,
2013-02-27 21:07:00,35.1,34.3,29.58,WSW,256,2.0,2.0,97,0.02,,-RA,0.56,VWS V14.01,2013-02-28 02:07:00,
2013-02-27 21:12:00,35.1,34.3,29.58,West,269,1.0,2.0,97,0.03,,-RA,0.57,VWS V14.01,2013-02-28 02:12:00,
2013-02-27 21:17:00,35.2,34.4,29.58,West,273,0.0,2.0,97,0.03,,-RA,0.57,VWS V14.01,2013-02-28 02:17:00,
2013-02-27 21:22:00,35.2,34.4,29.59,WSW,252,1.0,2.0,97,0.04,,-RA,0.58,VWS V14.01,2013-02-28 02:22:00,
2013-02-27 21:27:00,35.3,34.5,29.59,WSW,249,0.0,2.0,97,0.04,,-RA,0.58,VWS V14.01,2013-02-28 02:27:00,
2013-02-27 21:30:00,35.2,34.4,29.59,West,263,2.0,2.0,97,0.05,,-RA,0.59,VWS V14.01,2013-02-28 02:30:00,
2013-02-27 21:32:00,35.2,34.4,29.59,West,263,2.0,2.0,97,0.05,,-RA,0.59,VWS V14.01,2013-02-28 02:32:00,
2013-02-27 21:38:00,35.4,34.6,29.59,West,262,1.0,3.0,97,0.04,,-RA,0.59,VWS V14.01,2013-02-28 02:38:00,
2013-02-27 21:43:00,35.5,34.7,29.59,West,260,1.0,3.0,97,0.05,,-RA,0.60,VWS V14.01,2013-02-28 02:43:00,
2013-02-27 21:51:00,35.5,34.7,29.59,West,263,2.0,2.0,97,0.05,,-RA,0.60,VWS V14.01,2013-02-28 02:51:00,
2013-02-27 21:57:00,35.5,34.7,29.59,West,266,1.0,2.0,97,0.06,,-RA,0.61,VWS V14.01,2013-02-28 02:57:00,
2013-02-27 22:00:00,35.8,34.2,29.58,West,267,3.0,7.0,94,0.06,,OVC,0.65,VWS V14.01,2013-02-28 03:00:00,
2013-02-27 22:02:00,35.5,34.7,29.59,West,260,1.0,2.0,97,0.06,,-RA,0.61,VWS V14.01,2013-02-28 03:02:00,
2013-02-27 22:07:00,35.6,34.8,29.58,West,267,0.0,3.0,97,0.06,,-RA,0.62,VWS V14.01,2013-02-28 03:07:00,
2013-02-27 22:12:00,35.6,34.8,29.58,West,262,1.0,4.0,97,0.06,,-RA,0.62,VWS V14.01,2013-02-28 03:12:00,
2013-02-27 22:17:00,35.6,34.8,29.58,West,262,2.0,4.0,97,0.06,,-RA,0.62,VWS V14.01,2013-02-28 03:17:00,
2013-02-27 22:22:00,35.7,34.9,29.58,WNW,291,1.0,4.0,97,0.07,,-RA,0.63,VWS V14.01,2013-02-28 03:22:00,
2013-02-27 22:27:00,35.7,34.7,29.58,West,276,3.0,4.0,96,0.07,,-RA,0.63,VWS V14.01,2013-02-28 03:27:00,
2013-02-27 22:30:00,35.4,33.8,29.58,West,269,1.0,5.0,94,0.06,,OVC,0.67,VWS V14.01,2013-02-28 03:30:00,
2013-02-27 22:33:00,35.8,34.8,29.58,West,270,4.0,4.0,96,0.04,,-RA,0.63,VWS V14.01,2013-02-28 03:33:00,
2013-02-27 22:38:00,35.9,34.9,29.58,WSW,253,7.0,7.0,96,0.05,,-RA,0.64,VWS V14.01,2013-02-28 03:38:00,
2013-02-27 22:43:00,35.9,34.6,29.58,West,274,2.0,7.0,95,0.05,,-RA,0.64,VWS V14.01,2013-02-28 03:43:00,
2013-02-27 22:48:00,35.9,34.6,29.58,WSW,241,3.0,7.0,95,0.05,,-RA,0.64,VWS V14.01,2013-02-28 03:48:00,
2013-02-27 22:53:00,35.9,34.6,29.58,WNW,302,2.0,7.0,95,0.06,,-RA,0.65,VWS V14.01,2013-02-28 03:53:00,
2013-02-27 22:58:00,35.8,34.2,29.58,West,264,3.0,7.0,94,0.06,,-RA,0.65,VWS V14.01,2013-02-28 03:58:00,
2013-02-27 23:00:00,35.4,33.8,29.58,West,267,2.0,5.0,94,0.05,,OVC,0.00,VWS V14.01,2013-02-28 04:00:00,
2013-02-27 23:03:00,35.8,34.2,29.58,West,263,2.0,4.0,94,0.04,,-RA,0.65,VWS V14.01,2013-02-28 04:03:00,
2013-02-27 23:09:00,35.7,34.2,29.58,West,278,5.0,5.0,94,0.05,,-RA,0.66,VWS V14.01,2013-02-28 04:09:00,
2013-02-27 23:14:00,35.6,34.0,29.58,WSW,257,2.0,5.0,94,0.05,,-RA,0.66,VWS V14.01,2013-02-28 04:14:00,
2013-02-27 23:19:00,35.6,34.0,29.58,West,260,3.0,5.0,94,0.05,,-RA,0.66,VWS V14.01,2013-02-28 04:19:00,
2013-02-27 23:24:00,35.5,34.0,29.58,West,275,2.0,5.0,94,0.06,,-RA,0.67,VWS V14.01,2013-02-28 04:24:00,
2013-02-27 23:29:00,35.5,34.0,29.58,West,278,2.0,5.0,94,0.06,,-RA,0.67,VWS V14.01,2013-02-28 04:29:00,
2013-02-27 23:30:00,35.5,33.7,29.58,West,263,2.0,5.0,93,0.05,,OVC,0.02,VWS V14.01,2013-02-28 04:30:00,
2013-02-27 23:34:00,35.4,33.8,29.58,West,265,1.0,2.0,94,0.04,,OVC050,0.67,VWS V14.01,2013-02-28 04:34:00,
2013-02-27 23:39:00,35.3,33.8,29.58,West,263,1.0,5.0,94,0.04,,OVC050,0.67,VWS V14.01,2013-02-28 04:39:00,
2013-02-27 23:45:00,35.4,33.8,29.58,WSW,256,3.0,5.0,94,0.05,,OVC050,0.68,VWS V14.01,2013-02-28 04:45:00,
2013-02-27 23:50:00,35.5,34.0,29.58,WSW,252,1.0,5.0,94,0.05,,OVC050,0.68,VWS V14.01,2013-02-28 04:50:00,
2013-02-27 23:55:00,35.5,34.0,29.58,WSW,253,1.0,5.0,94,0.05,,OVC050,0.68,VWS V14.01,2013-02-28 04:55:00,